createdAt,value
2023-10-09T00:02:11.384Z,100171.97
2023-10-09T00:04:43.377Z,100170.19
2023-10-09T00:07:12.530Z,100183.31
2023-10-09T00:09:49.728Z,100183.31
2023-10-09T00:12:25.290Z,100183.25
2023-10-09T00:14:57.524Z,100173.50
2023-10-09T00:17:25.246Z,100167.38
2023-10-09T00:19:53.249Z,100165.53
2023-10-09T00:22:27.579Z,100167.22
2023-10-09T00:25:13.436Z,100169.84
2023-10-09T00:27:44.611Z,100161.97
2023-10-09T00:30:19.315Z,100170.59
2023-10-09T00:33:07.898Z,100178.47
2023-10-09T00:35:41.106Z,100194.00
2023-10-09T00:38:25.624Z,100193.03
2023-10-09T00:41:11.952Z,100196.44
2023-10-09T00:43:40.084Z,100192.19
2023-10-09T00:46:18.030Z,100189.66
2023-10-09T00:48:45.997Z,100189.44
2023-10-09T00:51:20.134Z,100198.94
2023-10-09T00:53:54.020Z,100194.53
2023-10-09T00:56:28.682Z,100196.38
2023-10-09T00:59:21.343Z,100210.41
2023-10-09T01:01:58.427Z,100205.94
2023-10-09T01:04:27.688Z,100206.03
2023-10-09T01:07:16.885Z,100192.09
2023-10-09T01:09:46.058Z,100189.38
2023-10-09T01:12:19.747Z,100188.66
2023-10-09T01:14:54.120Z,100185.19
2023-10-09T01:17:31.013Z,100186.91
2023-10-09T01:19:59.576Z,100184.28
2023-10-09T01:22:26.478Z,100190.28
2023-10-09T01:24:56.959Z,100196.38
2023-10-09T01:27:27.201Z,100178.91
2023-10-09T01:29:54.275Z,100185.03
2023-10-09T01:32:21.667Z,100172.78
2023-10-09T01:34:52.251Z,100164.16
2023-10-09T01:37:31.891Z,100165.00
2023-10-09T01:40:20.488Z,100172.69
2023-10-09T01:42:47.347Z,100169.19
2023-10-09T01:45:20.556Z,100174.34
2023-10-09T01:47:53.472Z,100182.34
2023-10-09T01:50:26.106Z,100181.38
2023-10-09T01:52:53.495Z,100177.91
2023-10-09T01:55:41.713Z,100184.78
2023-10-09T01:58:25.776Z,100184.84
2023-10-09T02:00:57.211Z,100180.44
2023-10-09T02:03:25.949Z,100173.44
2023-10-09T02:06:01.366Z,100179.53
2023-10-09T02:08:28.648Z,100175.19
2023-10-09T02:10:58.592Z,100179.53
2023-10-09T02:13:32.943Z,100187.31
2023-10-09T02:16:29.908Z,100196.00
2023-10-09T02:19:09.321Z,100195.94
2023-10-09T02:21:41.864Z,100189.16
2023-10-09T02:24:14.414Z,100191.69
2023-10-09T02:26:41.496Z,100192.66
2023-10-09T02:29:11.350Z,100187.41
2023-10-09T02:31:42.360Z,100187.34
2023-10-09T02:34:09.567Z,100180.41
2023-10-09T02:36:39.823Z,100181.22
2023-10-09T02:39:07.726Z,100184.56
2023-10-09T02:41:35.960Z,100193.44
2023-10-09T02:44:12.811Z,100191.75
2023-10-09T02:46:41.590Z,100188.28
2023-10-09T02:49:10.852Z,100180.44
2023-10-09T02:51:54.173Z,100176.81
2023-10-09T02:54:23.716Z,100183.81
2023-10-09T02:57:08.674Z,100186.31
2023-10-09T02:59:39.934Z,100183.63
2023-10-09T03:02:07.192Z,100185.22
2023-10-09T03:04:34.988Z,100182.53
2023-10-09T03:07:02.608Z,100186.78
2023-10-09T03:09:29.953Z,100183.06
2023-10-09T03:12:05.235Z,100176.06
2023-10-09T03:14:36.470Z,100176.97
2023-10-09T03:17:04.168Z,100182.22
2023-10-09T03:19:38.957Z,100181.47
2023-10-09T03:22:12.205Z,100185.78
2023-10-09T03:24:51.646Z,100181.34
2023-10-09T03:27:19.783Z,100177.97
2023-10-09T03:29:55.417Z,100171.13
2023-10-09T03:32:22.601Z,100173.66
2023-10-09T03:34:53.056Z,100173.53
2023-10-09T03:37:36.152Z,100163.94
2023-10-09T03:40:07.439Z,100163.94
2023-10-09T03:42:37.734Z,100159.50
2023-10-09T03:45:14.115Z,100158.41
2023-10-09T03:47:44.577Z,100167.75
2023-10-09T03:50:28.391Z,100167.81
2023-10-09T03:52:56.688Z,100156.47
2023-10-09T03:55:29.170Z,100167.56
2023-10-09T03:57:58.837Z,100172.66
2023-10-09T04:15:02.666Z,100171.06
2023-10-09T04:17:36.351Z,100176.56
2023-10-09T04:20:20.883Z,100189.25
2023-10-09T04:23:07.142Z,100187.47
2023-10-09T04:25:43.549Z,100194.13
2023-10-09T04:28:21.010Z,100180.81
2023-10-09T04:30:55.304Z,100188.44
2023-10-09T04:33:49.964Z,100184.19
2023-10-09T04:36:19.723Z,100175.31
2023-10-09T04:39:05.683Z,100190.06
2023-10-09T04:41:53.644Z,100194.28
2023-10-09T04:44:24.352Z,100191.34
2023-10-09T04:47:25.432Z,100189.59
2023-10-09T04:49:58.178Z,100194.13
2023-10-09T04:52:31.730Z,100196.66
2023-10-09T04:55:12.089Z,100184.22
2023-10-09T04:58:02.169Z,100192.28
2023-10-09T05:00:29.926Z,100194.78
2023-10-09T05:03:28.547Z,100208.72
2023-10-09T05:06:07.131Z,100211.78
2023-10-09T05:08:34.259Z,100200.84
2023-10-09T05:11:03.658Z,100209.13
2023-10-09T05:13:43.181Z,100202.09
2023-10-09T05:16:21.088Z,100201.38
2023-10-09T05:18:58.593Z,100206.09
2023-10-09T05:21:33.193Z,100204.81
2023-10-09T05:24:20.590Z,100215.03
2023-10-09T05:26:48.928Z,100228.59
2023-10-09T05:29:34.998Z,100230.25
2023-10-09T05:32:15.556Z,100225.47
2023-10-09T05:35:00.791Z,100216.91
2023-10-09T05:37:36.315Z,100214.66
2023-10-09T05:40:19.333Z,100216.16
2023-10-09T05:42:59.126Z,100216.31
2023-10-09T05:45:45.485Z,100225.00
2023-10-09T05:48:15.520Z,100219.81
2023-10-09T05:50:57.647Z,100214.75
2023-10-09T05:53:36.631Z,100209.38
2023-10-09T05:56:22.189Z,100216.88
2023-10-09T05:59:15.529Z,100224.72
2023-10-09T06:01:51.942Z,100220.22
2023-10-09T06:04:21.254Z,100217.75
2023-10-09T06:06:57.993Z,100215.13
2023-10-09T06:09:45.280Z,100218.59
2023-10-09T06:12:30.948Z,100214.75
2023-10-09T06:15:20.294Z,100220.44
2023-10-09T06:17:53.880Z,100205.25
2023-10-09T06:20:39.552Z,100213.84
2023-10-09T06:23:29.193Z,100200.38
2023-10-09T06:26:06.921Z,100213.16
2023-10-09T06:28:36.710Z,100205.53
2023-10-09T06:31:23.612Z,100215.50
2023-10-09T06:34:13.431Z,100217.75
2023-10-09T06:36:54.450Z,100214.38
2023-10-09T06:39:40.335Z,100212.47
2023-10-09T06:42:17.724Z,100208.81
2023-10-09T06:44:53.864Z,100207.34
2023-10-09T06:47:25.425Z,100200.31
2023-10-09T06:50:11.075Z,100205.59
2023-10-09T06:52:56.585Z,100220.41
2023-10-09T06:55:34.152Z,100204.69
2023-10-09T06:58:11.443Z,100216.16
2023-10-09T07:01:13.505Z,100220.91
2023-10-09T07:03:53.659Z,100212.13
2023-10-09T07:06:26.160Z,100212.81
2023-10-09T07:09:06.503Z,100216.03
2023-10-09T07:11:43.890Z,100208.31
2023-10-09T07:14:53.857Z,100201.94
2023-10-09T07:17:23.773Z,100206.66
2023-10-09T07:19:51.977Z,100200.19
2023-10-09T07:22:22.194Z,100195.13
2023-10-09T07:24:59.315Z,100202.72
2023-10-09T07:27:45.666Z,100194.19
2023-10-09T07:30:47.165Z,100182.38
2023-10-09T07:33:14.665Z,100181.88
2023-10-09T07:35:58.945Z,100192.00
2023-10-09T07:38:36.759Z,100190.66
2023-10-09T07:41:07.234Z,100180.94
2023-10-09T07:43:58.748Z,100178.50
2023-10-09T07:46:31.875Z,100175.56
2023-10-09T07:49:13.763Z,100171.72
2023-10-09T07:51:45.488Z,100161.38
2023-10-09T07:54:16.304Z,100156.66
2023-10-09T07:56:47.753Z,100164.28
2023-10-09T07:59:19.540Z,100159.44
2023-10-09T08:07:04.286Z,100159.75
2023-10-09T08:09:48.520Z,100154.97
2023-10-09T08:12:37.448Z,100151.22
2023-10-09T08:15:20.698Z,100149.69
2023-10-09T08:18:14.346Z,100152.44
2023-10-09T08:20:59.378Z,100136.28
2023-10-09T08:23:49.604Z,100137.84
2023-10-09T08:26:30.504Z,100128.22
2023-10-09T08:29:16.602Z,100133.50
2023-10-09T08:31:47.157Z,100132.22
2023-10-09T08:36:57.645Z,100095.47
2023-10-09T08:39:28.243Z,100097.94
2023-10-09T08:41:59.462Z,100106.91
2023-10-09T08:44:30.675Z,100117.69
2023-10-09T08:46:58.664Z,100099.53
2023-10-09T08:49:27.785Z,100099.31
2023-10-09T08:51:54.961Z,100100.06
2023-10-09T08:54:22.189Z,100102.47
2023-10-09T08:56:52.387Z,100082.28
2023-10-09T08:59:20.827Z,100068.56
2023-10-09T09:01:53.506Z,100063.66
2023-10-09T09:04:53.677Z,100073.13
2023-10-09T09:07:30.501Z,100072.91
2023-10-09T09:10:19.077Z,100072.28
2023-10-09T09:12:46.625Z,100071.31
2023-10-09T09:15:22.180Z,100064.09
2023-10-09T09:17:52.784Z,100066.34
2023-10-09T09:20:35.958Z,100056.00
2023-10-09T09:23:05.922Z,100048.81
2023-10-09T09:25:49.609Z,100035.75
2023-10-09T09:28:22.973Z,100029.13
2023-10-09T09:30:52.598Z,100029.72
2023-10-09T09:33:46.106Z,100021.56
2023-10-09T09:36:13.174Z,100011.38
2023-10-09T09:38:49.659Z,100014.97
2023-10-09T09:41:26.429Z,100017.72
2023-10-09T09:43:58.778Z,100013.47
2023-10-09T09:46:35.661Z,100011.66
2023-10-09T09:49:05.054Z,100011.03
2023-10-09T09:51:35.831Z,100002.38
2023-10-09T09:54:03.917Z,99981.34
2023-10-09T09:56:32.167Z,99988.59
2023-10-09T09:59:05.716Z,99983.09
2023-10-09T10:01:37.921Z,99974.50
2023-10-09T10:04:16.869Z,99975.00
2023-10-09T10:06:46.538Z,99973.84
2023-10-09T10:09:43.065Z,99975.94
2023-10-09T10:12:11.243Z,99965.06
2023-10-09T10:15:01.009Z,99965.38
2023-10-09T10:17:31.745Z,99962.81
2023-10-09T10:20:02.081Z,99961.50
2023-10-09T10:22:31.890Z,99942.47
2023-10-09T10:24:59.868Z,99935.22
2023-10-09T10:27:27.960Z,99922.66
2023-10-09T10:30:14.369Z,99918.66
2023-10-09T10:33:10.829Z,99903.91
2023-10-09T10:35:46.461Z,99901.44
2023-10-09T10:38:36.566Z,99902.31
2023-10-09T10:41:20.682Z,99880.69
2023-10-09T10:43:54.430Z,99884.59
2023-10-09T10:46:39.099Z,99855.31
2023-10-09T10:49:33.967Z,99857.34
2023-10-09T10:52:16.461Z,99840.22
2023-10-09T10:54:43.352Z,99834.53
2023-10-09T10:57:38.821Z,99832.72
2023-10-09T11:00:31.038Z,99817.47
2023-10-09T11:03:14.707Z,99812.47
2023-10-09T11:05:52.030Z,99803.91
2023-10-09T11:08:25.317Z,99790.03
2023-10-09T11:10:52.477Z,99776.50
2023-10-09T11:13:34.699Z,99770.50
2023-10-09T11:16:16.648Z,99776.47
2023-10-09T11:18:52.862Z,99760.78
2023-10-09T11:21:19.977Z,99760.44
2023-10-09T11:24:08.137Z,99758.22
2023-10-09T11:26:41.964Z,99743.06
2023-10-09T11:29:19.759Z,99746.44
2023-10-09T11:32:07.163Z,99739.75
2023-10-09T11:34:37.295Z,99729.66
2023-10-09T11:37:13.436Z,99724.28
2023-10-09T11:39:58.917Z,99706.88
2023-10-09T11:42:48.256Z,99707.97
2023-10-09T11:45:26.458Z,99703.75
2023-10-09T11:48:00.750Z,99700.41
2023-10-09T11:50:51.079Z,99704.19
2023-10-09T11:53:24.415Z,99692.50
2023-10-09T11:55:54.557Z,99697.53
2023-10-09T11:58:25.866Z,99691.16
2023-10-09T12:14:58.809Z,99668.25
2023-10-09T12:17:27.649Z,99672.75
2023-10-09T12:19:57.677Z,99656.91
2023-10-09T12:22:28.663Z,99664.91
2023-10-09T12:24:55.726Z,99648.03
2023-10-09T12:27:23.355Z,99638.69
2023-10-09T12:29:51.045Z,99652.59
2023-10-09T12:32:21.000Z,99647.09
2023-10-09T12:34:52.140Z,99632.72
2023-10-09T12:37:22.255Z,99631.72
2023-10-09T12:39:49.611Z,99621.41
2023-10-09T12:42:18.410Z,99610.81
2023-10-09T12:44:45.880Z,99604.16
2023-10-09T12:47:13.123Z,99605.25
2023-10-09T12:49:42.484Z,99610.81
2023-10-09T12:52:17.909Z,99594.97
2023-10-09T12:54:48.031Z,99592.38
2023-10-09T12:57:15.192Z,99597.50
2023-10-09T12:59:50.041Z,99589.84
2023-10-09T13:05:01.378Z,99581.31
2023-10-09T13:07:28.707Z,99578.78
2023-10-09T13:10:11.104Z,99583.56
2023-10-09T13:12:43.044Z,99558.56
2023-10-09T13:15:10.956Z,99547.03
2023-10-09T13:17:42.710Z,99542.09
2023-10-09T13:20:17.649Z,99536.56
2023-10-09T13:22:45.858Z,99535.69
2023-10-09T13:25:31.239Z,99530.97
2023-10-09T13:28:05.315Z,99531.28
2023-10-09T13:30:41.477Z,99517.94
2023-10-09T13:33:09.080Z,99512.03
2023-10-09T13:35:49.674Z,99507.00
2023-10-09T13:38:18.005Z,99505.41
2023-10-09T13:40:45.138Z,99499.47
2023-10-09T13:43:18.416Z,99502.94
2023-10-09T13:45:51.553Z,99494.16
2023-10-09T13:48:19.493Z,99492.97
2023-10-09T13:50:46.421Z,99484.84
2023-10-09T13:53:16.037Z,99478.59
2023-10-09T13:55:45.341Z,99477.41
2023-10-09T13:58:18.761Z,99470.56
2023-10-09T14:00:47.813Z,99476.13
2023-10-09T14:03:15.244Z,99469.72
2023-10-09T14:05:58.587Z,99461.44
2023-10-09T14:08:27.524Z,99455.41
2023-10-09T14:10:56.164Z,99448.03
2023-10-09T14:13:30.536Z,99442.53
2023-10-09T14:16:01.515Z,99437.13
2023-10-09T14:18:31.694Z,99433.84
2023-10-09T14:21:06.466Z,99422.81
2023-10-09T14:23:36.616Z,99417.97
2023-10-09T14:26:03.696Z,99411.88
2023-10-09T14:28:30.730Z,99414.88
2023-10-09T14:31:00.811Z,99418.09
2023-10-09T14:33:29.195Z,99414.94
2023-10-09T14:35:56.564Z,99401.50
2023-10-09T14:38:28.881Z,99406.66
2023-10-09T14:41:02.353Z,99406.38
2023-10-09T14:43:30.147Z,99406.94
2023-10-09T14:45:57.283Z,99404.03
2023-10-09T14:48:27.578Z,99397.56
2023-10-09T14:50:55.099Z,99388.09
2023-10-09T14:53:23.430Z,99388.09
2023-10-09T14:55:57.676Z,99386.25
2023-10-09T14:58:27.031Z,99376.94
2023-10-09T15:00:55.456Z,99379.75
2023-10-09T15:03:23.765Z,99370.84
2023-10-09T15:05:51.300Z,99380.09
2023-10-09T15:08:19.240Z,99363.22
2023-10-09T15:10:50.507Z,99368.41
2023-10-09T15:13:17.808Z,99364.00
2023-10-09T15:15:46.987Z,99368.53
2023-10-09T15:18:14.540Z,99369.72
2023-10-09T15:20:56.517Z,99361.78
2023-10-09T15:23:24.066Z,99351.53
2023-10-09T15:25:57.064Z,99350.81
2023-10-09T15:28:24.658Z,99360.16
2023-10-09T15:30:52.219Z,99360.16
2023-10-09T15:33:20.080Z,99370.03
2023-10-09T15:35:53.356Z,99358.13
2023-10-09T15:38:21.135Z,99360.88
2023-10-09T15:40:49.206Z,99348.84
2023-10-09T15:43:18.433Z,99361.31
2023-10-09T15:45:49.412Z,99359.72
2023-10-09T15:48:17.039Z,99341.03
2023-10-09T15:50:52.259Z,99369.81
2023-10-09T15:53:20.706Z,99366.56
2023-10-09T15:55:48.091Z,99354.00
2023-10-09T15:58:16.420Z,99356.66
2023-10-09T16:00:47.897Z,99358.66
2023-10-09T16:03:43.151Z,99357.81
2023-10-09T16:06:22.282Z,99372.28
2023-10-09T16:08:53.429Z,99359.50
2023-10-09T16:11:25.301Z,99373.75
2023-10-09T16:13:55.141Z,99370.13
2023-10-09T16:16:33.004Z,99371.91
2023-10-09T16:19:00.136Z,99358.03
2023-10-09T16:21:28.004Z,99353.91
2023-10-09T16:24:00.488Z,99364.75
2023-10-09T16:26:28.272Z,99381.16
2023-10-09T16:28:55.840Z,99384.59
2023-10-09T16:31:41.762Z,99376.72
2023-10-09T16:34:09.925Z,99360.09
2023-10-09T16:36:37.894Z,99372.56
2023-10-09T16:39:05.287Z,99365.91
2023-10-09T16:41:41.379Z,99355.63
2023-10-09T16:44:11.480Z,99372.22
2023-10-09T16:46:41.289Z,99368.63
2023-10-09T16:49:09.851Z,99382.50
2023-10-09T16:51:36.902Z,99380.78
2023-10-09T16:54:07.015Z,99383.22
2023-10-09T16:56:34.924Z,99382.03
2023-10-09T16:59:02.223Z,99388.31
2023-10-09T17:01:29.510Z,99396.97
2023-10-09T17:03:59.605Z,99396.78
2023-10-09T17:06:30.445Z,99394.53
2023-10-09T17:08:58.422Z,99395.75
2023-10-09T17:11:26.014Z,99402.94
2023-10-09T17:13:56.129Z,99402.13
2023-10-09T17:16:25.941Z,99407.47
2023-10-09T17:18:56.995Z,99416.84
2023-10-09T17:21:25.342Z,99412.53
2023-10-09T17:23:56.938Z,99414.34
2023-10-09T17:26:24.750Z,99431.91
2023-10-09T17:28:56.086Z,99422.50
2023-10-09T17:31:28.007Z,99437.38
2023-10-09T17:33:58.570Z,99444.28
2023-10-09T17:36:27.714Z,99443.50
2023-10-09T17:38:55.206Z,99454.13
2023-10-09T17:41:23.172Z,99452.47
2023-10-09T17:43:53.716Z,99450.69
2023-10-09T17:46:20.722Z,99451.75
2023-10-09T17:48:47.859Z,99435.34
2023-10-09T17:51:16.614Z,99440.25
2023-10-09T17:53:44.456Z,99455.09
2023-10-09T17:56:11.748Z,99455.09
2023-10-09T17:58:39.406Z,99460.31
2023-10-09T18:01:07.805Z,99470.09
2023-10-09T18:03:35.503Z,99494.69
2023-10-09T18:06:05.215Z,99485.16
2023-10-09T18:08:32.122Z,99496.56
2023-10-09T18:11:01.541Z,99499.28
2023-10-09T18:13:28.750Z,99487.16
2023-10-09T18:16:09.728Z,99497.66
2023-10-09T18:18:44.932Z,99478.56
2023-10-09T18:21:11.927Z,99493.31
2023-10-09T18:23:46.065Z,99491.69
2023-10-09T18:26:18.162Z,99488.13
2023-10-09T18:28:46.703Z,99487.06
2023-10-09T18:31:15.087Z,99481.75
2023-10-09T18:33:44.972Z,99477.41
2023-10-09T18:36:12.750Z,99480.91
2023-10-09T18:38:40.334Z,99484.41
2023-10-09T18:41:08.670Z,99500.91
2023-10-09T18:43:36.442Z,99506.06
2023-10-09T18:46:12.021Z,99498.16
2023-10-09T18:48:39.286Z,99495.09
2023-10-09T18:51:08.900Z,99506.44
2023-10-09T18:53:35.983Z,99502.97
2023-10-09T18:56:03.373Z,99506.34
2023-10-09T18:58:30.466Z,99527.19
2023-10-09T19:01:03.460Z,99528.84
2023-10-09T19:03:31.284Z,99532.44
2023-10-09T19:05:58.403Z,99528.16
2023-10-09T19:08:25.450Z,99537.69
2023-10-09T19:11:02.711Z,99548.06
2023-10-09T19:13:31.333Z,99549.97
2023-10-09T19:15:58.432Z,99554.31
2023-10-09T19:18:26.341Z,99563.03
2023-10-09T19:20:54.512Z,99563.97
2023-10-09T19:23:21.774Z,99566.78
2023-10-09T19:25:48.946Z,99561.28
2023-10-09T19:28:16.519Z,99560.19
2023-10-09T19:30:45.557Z,99551.88
2023-10-09T19:33:13.366Z,99548.31
2023-10-09T19:35:42.146Z,99563.09
2023-10-09T19:38:09.563Z,99571.72
2023-10-09T19:40:36.937Z,99569.97
2023-10-09T19:43:06.491Z,99571.59
2023-10-09T19:45:33.768Z,99579.34
2023-10-09T19:48:03.647Z,99583.00
2023-10-09T19:50:30.570Z,99581.13
2023-10-09T19:52:57.578Z,99574.28
2023-10-09T19:55:24.700Z,99568.94
2023-10-09T19:57:52.821Z,99567.16
2023-10-09T20:04:33.354Z,99581.09
2023-10-09T20:07:03.403Z,99586.25
2023-10-09T20:09:30.526Z,99590.56
2023-10-09T20:11:57.682Z,99598.41
2023-10-09T20:14:24.929Z,99593.19
2023-10-09T20:16:52.083Z,99601.91
2023-10-09T20:19:20.834Z,99597.50
2023-10-09T20:21:48.872Z,99594.88
2023-10-09T20:24:15.806Z,99601.91
2023-10-09T20:26:45.022Z,99599.22
2023-10-09T20:29:16.255Z,99597.50
2023-10-09T20:31:49.005Z,99602.66
2023-10-09T20:34:20.881Z,99603.50
2023-10-09T20:36:49.929Z,99621.81
2023-10-09T20:39:22.952Z,99623.59
2023-10-09T20:41:52.185Z,99621.97
2023-10-09T20:44:21.055Z,99628.84
2023-10-09T20:46:56.267Z,99621.97
2023-10-09T20:49:25.143Z,99629.81
2023-10-09T20:51:57.508Z,99630.72
2023-10-09T20:54:27.719Z,99635.13
2023-10-09T20:56:56.470Z,99632.53
2023-10-09T20:59:25.159Z,99643.88
2023-10-09T21:04:53.869Z,99645.75
2023-10-09T21:07:21.040Z,99640.50
2023-10-09T21:09:49.500Z,99645.75
2023-10-09T21:12:19.852Z,99634.44
2023-10-09T21:14:47.186Z,99637.91
2023-10-09T21:17:17.273Z,99636.13
2023-10-09T21:19:44.881Z,99635.25
2023-10-09T21:22:11.842Z,99630.81
2023-10-09T21:24:39.181Z,99624.72
2023-10-09T21:27:06.225Z,99623.88
2023-10-09T21:29:33.864Z,99622.19
2023-10-09T21:32:00.955Z,99621.25
2023-10-09T21:34:28.508Z,99622.09
2023-10-09T21:36:56.087Z,99619.47
2023-10-09T21:39:23.134Z,99631.63
2023-10-09T21:41:50.199Z,99621.13
2023-10-09T21:44:17.190Z,99626.41
2023-10-09T21:46:44.112Z,99627.25
2023-10-09T21:49:11.924Z,99615.91
2023-10-09T21:51:39.163Z,99615.16
2023-10-09T21:54:06.494Z,99619.44
2023-10-09T21:56:33.901Z,99605.47
2023-10-09T21:59:01.012Z,99611.75
2023-10-09T22:01:29.352Z,99614.34
2023-10-09T22:03:56.555Z,99607.41
2023-10-09T22:06:27.697Z,99594.34
2023-10-09T22:08:54.942Z,99604.72
2023-10-09T22:11:22.289Z,99603.75
2023-10-09T22:13:49.398Z,99608.09
2023-10-09T22:16:16.626Z,99597.53
2023-10-09T22:18:49.861Z,99594.03
2023-10-09T22:21:17.440Z,99580.97
2023-10-09T22:23:48.186Z,99595.81
2023-10-09T22:26:21.767Z,99600.16
2023-10-09T22:28:49.509Z,99597.59
2023-10-09T22:31:17.655Z,99596.78
2023-10-09T22:33:51.008Z,99608.13
2023-10-09T22:36:46.929Z,99614.19
2023-10-09T22:39:26.469Z,99622.06
2023-10-09T22:41:56.042Z,99625.47
2023-10-09T22:44:23.635Z,99636.81
2023-10-09T22:46:53.417Z,99638.53
2023-10-09T22:49:20.829Z,99648.19
2023-10-09T22:51:54.180Z,99652.59
2023-10-09T22:54:36.946Z,99658.63
2023-10-09T22:57:07.274Z,99656.06
2023-10-09T22:59:45.471Z,99665.63
2023-10-09T23:02:24.131Z,99668.22
2023-10-09T23:05:06.102Z,99662.16
2023-10-09T23:07:34.075Z,99659.47
2023-10-09T23:10:16.718Z,99662.00
2023-10-09T23:12:50.183Z,99660.22
2023-10-09T23:15:34.542Z,99650.56
2023-10-09T23:18:11.787Z,99661.09
2023-10-09T23:20:50.040Z,99661.94
2023-10-09T23:23:26.401Z,99669.84
2023-10-09T23:26:07.193Z,99676.91
2023-10-09T23:28:41.409Z,99672.50
2023-10-09T23:31:23.803Z,99668.09
2023-10-09T23:33:58.452Z,99680.28
2023-10-09T23:36:30.602Z,99660.25
2023-10-09T23:39:16.668Z,99668.06
2023-10-09T23:42:00.220Z,99664.63
2023-10-09T23:44:36.036Z,99651.53
2023-10-09T23:47:10.770Z,99664.75
2023-10-09T23:49:40.229Z,99643.00
2023-10-09T23:52:09.041Z,99670.97
2023-10-09T23:54:38.069Z,99660.50
2023-10-09T23:57:05.559Z,99661.31
2023-10-09T23:59:41.523Z,99664.88
